sensor_id;sensor_type;location;lat;lon;timestamp;temperature;humidity
43963;DHT22;29622;45.534;9.242;2023-02-13T00:02:26;9.80;38.60
43963;DHT22;29622;45.534;9.242;2023-02-13T00:07:26;9.70;38.70
43963;DHT22;29622;45.534;9.242;2023-02-13T00:12:27;9.70;38.80
43963;DHT22;29622;45.534;9.242;2023-02-13T00:17:28;9.50;38.90
43963;DHT22;29622;45.534;9.242;2023-02-13T00:22:28;9.50;39.00
43963;DHT22;29622;45.534;9.242;2023-02-13T00:27:29;9.40;39.10
43963;DHT22;29622;45.534;9.242;2023-02-13T00:32:29;9.30;39.20
43963;DHT22;29622;45.534;9.242;2023-02-13T00:37:32;9.20;39.20
43963;DHT22;29622;45.534;9.242;2023-02-13T00:42:33;9.20;39.30
43963;DHT22;29622;45.534;9.242;2023-02-13T00:47:34;9.20;39.30
43963;DHT22;29622;45.534;9.242;2023-02-13T00:52:34;9.10;39.40
43963;DHT22;29622;45.534;9.242;2023-02-13T00:57:35;9.10;39.50
43963;DHT22;29622;45.534;9.242;2023-02-13T01:02:37;9.10;39.50
43963;DHT22;29622;45.534;9.242;2023-02-13T01:07:38;9.00;39.60
43963;DHT22;29622;45.534;9.242;2023-02-13T01:12:39;9.00;39.70
43963;DHT22;29622;45.534;9.242;2023-02-13T01:17:40;9.00;39.70
43963;DHT22;29622;45.534;9.242;2023-02-13T01:22:41;9.00;39.70
43963;DHT22;29622;45.534;9.242;2023-02-13T01:27:44;9.00;39.80
43963;DHT22;29622;45.534;9.242;2023-02-13T01:32:46;8.90;39.80
43963;DHT22;29622;45.534;9.242;2023-02-13T01:37:47;8.90;39.80
43963;DHT22;29622;45.534;9.242;2023-02-13T01:42:47;8.90;39.90
43963;DHT22;29622;45.534;9.242;2023-02-13T01:48:04;8.80;39.80
43963;DHT22;29622;45.534;9.242;2023-02-13T01:53:13;8.80;40.00
43963;DHT22;29622;45.534;9.242;2023-02-13T01:58:21;8.80;39.90
43963;DHT22;29622;45.534;9.242;2023-02-13T02:03:26;8.80;40.00
43963;DHT22;29622;45.534;9.242;2023-02-13T02:08:34;8.70;40.00
43963;DHT22;29622;45.534;9.242;2023-02-13T02:13:36;8.70;40.00
43963;DHT22;29622;45.534;9.242;2023-02-13T02:18:41;8.80;40.00
43963;DHT22;29622;45.534;9.242;2023-02-13T02:24:00;8.80;40.00
43963;DHT22;29622;45.534;9.242;2023-02-13T02:40:35;8.70;40.20
43963;DHT22;29622;45.534;9.242;2023-02-13T02:56:47;8.60;40.60
43963;DHT22;29622;45.534;9.242;2023-02-13T03:01:51;8.70;40.40
43963;DHT22;29622;45.534;9.242;2023-02-13T03:07:15;8.80;40.30
43963;DHT22;29622;45.534;9.242;2023-02-13T03:12:21;8.80;40.20
43963;DHT22;29622;45.534;9.242;2023-02-13T03:17:41;8.90;40.30
43963;DHT22;29622;45.534;9.242;2023-02-13T03:23:06;8.80;40.50
43963;DHT22;29622;45.534;9.242;2023-02-13T03:28:38;9.00;40.80
43963;DHT22;29622;45.534;9.242;2023-02-13T03:44:29;8.50;40.60
43963;DHT22;29622;45.534;9.242;2023-02-13T03:49:39;8.50;40.70
43963;DHT22;29622;45.534;9.242;2023-02-13T03:55:09;8.50;40.60
43963;DHT22;29622;45.534;9.242;2023-02-13T04:00:42;8.60;40.60
43963;DHT22;29622;45.534;9.242;2023-02-13T04:05:47;8.80;40.40
43963;DHT22;29622;45.534;9.242;2023-02-13T04:11:02;8.60;40.30
43963;DHT22;29622;45.534;9.242;2023-02-13T04:16:17;8.70;40.40
43963;DHT22;29622;45.534;9.242;2023-02-13T04:21:20;8.90;40.30
43963;DHT22;29622;45.534;9.242;2023-02-13T04:26:22;9.00;40.10
43963;DHT22;29622;45.534;9.242;2023-02-13T04:31:23;9.10;40.00
43963;DHT22;29622;45.534;9.242;2023-02-13T04:36:23;8.90;39.90
43963;DHT22;29622;45.534;9.242;2023-02-13T04:41:24;8.80;40.00
43963;DHT22;29622;45.534;9.242;2023-02-13T04:46:24;8.80;40.10
43963;DHT22;29622;45.534;9.242;2023-02-13T04:51:25;8.70;40.00
43963;DHT22;29622;45.534;9.242;2023-02-13T04:56:26;8.60;40.20
43963;DHT22;29622;45.534;9.242;2023-02-13T05:01:27;8.50;40.30
43963;DHT22;29622;45.534;9.242;2023-02-13T05:06:27;8.60;40.40
43963;DHT22;29622;45.534;9.242;2023-02-13T05:11:28;8.70;40.60
43963;DHT22;29622;45.534;9.242;2023-02-13T05:16:29;9.20;40.70
43963;DHT22;29622;45.534;9.242;2023-02-13T05:21:30;9.30;40.10
43963;DHT22;29622;45.534;9.242;2023-02-13T05:26:49;9.40;40.20
43963;DHT22;29622;45.534;9.242;2023-02-13T05:31:55;9.20;40.00
43963;DHT22;29622;45.534;9.242;2023-02-13T05:36:56;8.80;40.20
43963;DHT22;29622;45.534;9.242;2023-02-13T05:41:57;8.40;40.40
43963;DHT22;29622;45.534;9.242;2023-02-13T05:46:58;8.20;40.70
43963;DHT22;29622;45.534;9.242;2023-02-13T05:51:58;8.10;40.90
43963;DHT22;29622;45.534;9.242;2023-02-13T05:56:59;8.00;41.10
43963;DHT22;29622;45.534;9.242;2023-02-13T06:02:00;7.90;41.10
43963;DHT22;29622;45.534;9.242;2023-02-13T06:07:00;7.80;41.20
43963;DHT22;29622;45.534;9.242;2023-02-13T06:12:01;7.80;41.20
43963;DHT22;29622;45.534;9.242;2023-02-13T06:17:01;7.70;41.30
43963;DHT22;29622;45.534;9.242;2023-02-13T06:22:02;7.60;41.40
43963;DHT22;29622;45.534;9.242;2023-02-13T06:27:03;7.50;41.50
43963;DHT22;29622;45.534;9.242;2023-02-13T06:32:03;7.30;41.70
43963;DHT22;29622;45.534;9.242;2023-02-13T06:37:04;7.20;41.80
43963;DHT22;29622;45.534;9.242;2023-02-13T06:42:05;7.20;41.90
43963;DHT22;29622;45.534;9.242;2023-02-13T06:47:06;7.20;42.40
43963;DHT22;29622;45.534;9.242;2023-02-13T06:52:07;7.10;42.00
43963;DHT22;29622;45.534;9.242;2023-02-13T06:57:08;7.00;42.00
43963;DHT22;29622;45.534;9.242;2023-02-13T07:02:10;6.90;42.20
43963;DHT22;29622;45.534;9.242;2023-02-13T07:07:11;6.90;42.40
43963;DHT22;29622;45.534;9.242;2023-02-13T07:12:12;7.00;42.30
43963;DHT22;29622;45.534;9.242;2023-02-13T07:17:13;7.00;42.50
43963;DHT22;29622;45.534;9.242;2023-02-13T07:22:13;7.20;42.40
43963;DHT22;29622;45.534;9.242;2023-02-13T07:27:14;7.20;42.30
43963;DHT22;29622;45.534;9.242;2023-02-13T07:32:15;7.30;42.20
43963;DHT22;29622;45.534;9.242;2023-02-13T07:37:16;7.40;42.30
43963;DHT22;29622;45.534;9.242;2023-02-13T07:42:17;7.60;42.30
43963;DHT22;29622;45.534;9.242;2023-02-13T07:47:17;9.70;42.90
43963;DHT22;29622;45.534;9.242;2023-02-13T07:52:18;10.00;40.80
43963;DHT22;29622;45.534;9.242;2023-02-13T07:57:19;9.50;40.90
43963;DHT22;29622;45.534;9.242;2023-02-13T08:02:20;9.20;41.10
43963;DHT22;29622;45.534;9.242;2023-02-13T08:07:20;9.40;42.00
43963;DHT22;29622;45.534;9.242;2023-02-13T08:12:21;10.10;41.20
43963;DHT22;29622;45.534;9.242;2023-02-13T08:17:22;10.20;40.70
43963;DHT22;29622;45.534;9.242;2023-02-13T08:22:23;9.90;40.50
43963;DHT22;29622;45.534;9.242;2023-02-13T08:27:24;9.60;40.80
43963;DHT22;29622;45.534;9.242;2023-02-13T08:32:25;9.40;41.00
43963;DHT22;29622;45.534;9.242;2023-02-13T08:37:26;9.40;41.10
43963;DHT22;29622;45.534;9.242;2023-02-13T08:42:27;9.50;41.10
43963;DHT22;29622;45.534;9.242;2023-02-13T08:47:28;9.50;41.10
43963;DHT22;29622;45.534;9.242;2023-02-13T08:52:29;9.50;41.20
43963;DHT22;29622;45.534;9.242;2023-02-13T08:57:30;9.70;41.10
43963;DHT22;29622;45.534;9.242;2023-02-13T09:02:31;9.90;40.90
43963;DHT22;29622;45.534;9.242;2023-02-13T09:07:32;9.90;40.60
43963;DHT22;29622;45.534;9.242;2023-02-13T09:12:32;10.00;40.80
43963;DHT22;29622;45.534;9.242;2023-02-13T09:17:33;10.40;40.60
43963;DHT22;29622;45.534;9.242;2023-02-13T09:22:35;10.70;40.60
43963;DHT22;29622;45.534;9.242;2023-02-13T09:27:36;11.30;40.40
43963;DHT22;29622;45.534;9.242;2023-02-13T09:32:40;11.50;39.90
43963;DHT22;29622;45.534;9.242;2023-02-13T09:37:41;11.50;39.80
43963;DHT22;29622;45.534;9.242;2023-02-13T09:42:43;11.40;39.70
43963;DHT22;29622;45.534;9.242;2023-02-13T09:47:44;11.50;39.90
43963;DHT22;29622;45.534;9.242;2023-02-13T09:52:45;11.60;39.80
43963;DHT22;29622;45.534;9.242;2023-02-13T09:58:14;11.80;39.60
43963;DHT22;29622;45.534;9.242;2023-02-13T10:04:28;11.90;39.30
43963;DHT22;29622;45.534;9.242;2023-02-13T10:09:16;12.10;38.90
43963;DHT22;29622;45.534;9.242;2023-02-13T10:19:35;13.10;38.90
43963;DHT22;29622;45.534;9.242;2023-02-13T10:25:15;13.50;38.70
43963;DHT22;29622;45.534;9.242;2023-02-13T10:31:06;13.60;38.20
43963;DHT22;29622;45.534;9.242;2023-02-13T10:35:58;14.10;38.50
43963;DHT22;29622;45.534;9.242;2023-02-13T10:51:53;14.50;37.60
43963;DHT22;29622;45.534;9.242;2023-02-13T10:57:21;14.10;37.80
43963;DHT22;29622;45.534;9.242;2023-02-13T11:02:31;14.20;38.10
43963;DHT22;29622;45.534;9.242;2023-02-13T11:07:36;14.70;37.90
43963;DHT22;29622;45.534;9.242;2023-02-13T11:12:37;15.40;38.20
43963;DHT22;29622;45.534;9.242;2023-02-13T11:17:40;16.00;37.70
43963;DHT22;29622;45.534;9.242;2023-02-13T11:22:43;16.20;37.20
43963;DHT22;29622;45.534;9.242;2023-02-13T11:27:45;16.60;36.40
43963;DHT22;29622;45.534;9.242;2023-02-13T11:33:00;16.90;36.80
43963;DHT22;29622;45.534;9.242;2023-02-13T11:38:17;17.30;35.70
43963;DHT22;29622;45.534;9.242;2023-02-13T11:43:29;17.50;35.40
43963;DHT22;29622;45.534;9.242;2023-02-13T11:48:31;17.10;35.40
43963;DHT22;29622;45.534;9.242;2023-02-13T11:53:37;17.30;36.20
43963;DHT22;29622;45.534;9.242;2023-02-13T11:58:48;17.90;36.10
43963;DHT22;29622;45.534;9.242;2023-02-13T12:04:13;18.20;35.20
43963;DHT22;29622;45.534;9.242;2023-02-13T12:09:17;18.50;35.80
43963;DHT22;29622;45.534;9.242;2023-02-13T12:14:27;18.50;35.50
43963;DHT22;29622;45.534;9.242;2023-02-13T12:19:37;18.40;35.20
43963;DHT22;29622;45.534;9.242;2023-02-13T12:40:50;18.70;35.50
43963;DHT22;29622;45.534;9.242;2023-02-13T13:07:18;18.50;34.30
43963;DHT22;29622;45.534;9.242;2023-02-13T13:23:20;19.10;33.40
43963;DHT22;29622;45.534;9.242;2023-02-13T13:28:25;19.30;33.30
43963;DHT22;29622;45.534;9.242;2023-02-13T13:33:28;19.50;33.00
43963;DHT22;29622;45.534;9.242;2023-02-13T14:04:38;18.30;32.80
43963;DHT22;29622;45.534;9.242;2023-02-13T14:09:42;18.40;32.60
43963;DHT22;29622;45.534;9.242;2023-02-13T14:14:44;18.70;32.20
43963;DHT22;29622;45.534;9.242;2023-02-13T14:19:50;18.10;32.10
43963;DHT22;29622;45.534;9.242;2023-02-13T14:24:57;17.80;32.30
43963;DHT22;29622;45.534;9.242;2023-02-13T14:29:59;17.90;32.40
43963;DHT22;29622;45.534;9.242;2023-02-13T14:35:22;18.40;32.30
43963;DHT22;29622;45.534;9.242;2023-02-13T14:45:45;18.30;32.40
43963;DHT22;29622;45.534;9.242;2023-02-13T14:50:52;18.90;32.50
43963;DHT22;29622;45.534;9.242;2023-02-13T14:56:04;19.50;32.40
43963;DHT22;29622;45.534;9.242;2023-02-13T15:01:17;19.80;32.20
43963;DHT22;29622;45.534;9.242;2023-02-13T15:06:32;20.10;32.00
43963;DHT22;29622;45.534;9.242;2023-02-13T15:11:41;20.00;31.80
43963;DHT22;29622;45.534;9.242;2023-02-13T15:16:44;19.90;31.80
43963;DHT22;29622;45.534;9.242;2023-02-13T15:21:49;19.70;31.70
43963;DHT22;29622;45.534;9.242;2023-02-13T15:27:02;19.80;31.50
43963;DHT22;29622;45.534;9.242;2023-02-13T15:32:19;20.00;32.30
43963;DHT22;29622;45.534;9.242;2023-02-13T15:37:23;20.00;31.80
43963;DHT22;29622;45.534;9.242;2023-02-13T15:42:24;19.90;32.00
43963;DHT22;29622;45.534;9.242;2023-02-13T15:47:30;19.90;32.50
43963;DHT22;29622;45.534;9.242;2023-02-13T15:52:35;20.10;32.80
43963;DHT22;29622;45.534;9.242;2023-02-13T15:57:38;20.00;33.00
43963;DHT22;29622;45.534;9.242;2023-02-13T16:02:42;20.20;32.70
43963;DHT22;29622;45.534;9.242;2023-02-13T16:07:57;20.30;32.40
43963;DHT22;29622;45.534;9.242;2023-02-13T16:13:02;19.70;31.70
43963;DHT22;29622;45.534;9.242;2023-02-13T16:18:03;19.20;32.00
43963;DHT22;29622;45.534;9.242;2023-02-13T16:23:12;19.00;31.90
43963;DHT22;29622;45.534;9.242;2023-02-13T16:28:21;18.60;32.10
43963;DHT22;29622;45.534;9.242;2023-02-13T16:33:26;18.40;32.20
43963;DHT22;29622;45.534;9.242;2023-02-13T16:38:41;18.20;32.70
43963;DHT22;29622;45.534;9.242;2023-02-13T16:43:59;18.00;32.60
43963;DHT22;29622;45.534;9.242;2023-02-13T16:54:23;18.30;33.40
43963;DHT22;29622;45.534;9.242;2023-02-13T17:04:33;18.50;33.10
43963;DHT22;29622;45.534;9.242;2023-02-13T17:09:34;18.20;33.40
43963;DHT22;29622;45.534;9.242;2023-02-13T17:14:35;17.70;33.50
43963;DHT22;29622;45.534;9.242;2023-02-13T17:19:36;17.30;33.80
43963;DHT22;29622;45.534;9.242;2023-02-13T17:24:37;17.10;35.00
43963;DHT22;29622;45.534;9.242;2023-02-13T17:29:37;17.70;36.10
43963;DHT22;29622;45.534;9.242;2023-02-13T17:34:39;18.00;35.60
43963;DHT22;29622;45.534;9.242;2023-02-13T17:39:39;17.70;35.40
43963;DHT22;29622;45.534;9.242;2023-02-13T17:44:40;17.90;35.70
43963;DHT22;29622;45.534;9.242;2023-02-13T17:49:41;18.00;34.90
43963;DHT22;29622;45.534;9.242;2023-02-13T17:54:42;17.80;34.70
43963;DHT22;29622;45.534;9.242;2023-02-13T17:59:44;18.00;34.70
43963;DHT22;29622;45.534;9.242;2023-02-13T18:04:46;18.40;35.30
43963;DHT22;29622;45.534;9.242;2023-02-13T18:09:47;18.40;35.20
43963;DHT22;29622;45.534;9.242;2023-02-13T18:14:48;17.70;35.20
43963;DHT22;29622;45.534;9.242;2023-02-13T18:19:49;17.30;35.80
43963;DHT22;29622;45.534;9.242;2023-02-13T18:24:50;16.40;35.60
43963;DHT22;29622;45.534;9.242;2023-02-13T18:29:52;15.90;35.90
43963;DHT22;29622;45.534;9.242;2023-02-13T18:34:53;15.50;36.00
43963;DHT22;29622;45.534;9.242;2023-02-13T18:39:54;15.20;36.30
43963;DHT22;29622;45.534;9.242;2023-02-13T18:44:55;15.20;36.20
43963;DHT22;29622;45.534;9.242;2023-02-13T18:49:56;14.80;36.20
43963;DHT22;29622;45.534;9.242;2023-02-13T18:54:56;14.10;36.60
43963;DHT22;29622;45.534;9.242;2023-02-13T18:59:57;13.60;37.00
43963;DHT22;29622;45.534;9.242;2023-02-13T19:04:58;13.30;37.40
43963;DHT22;29622;45.534;9.242;2023-02-13T19:09:58;13.10;37.60
43963;DHT22;29622;45.534;9.242;2023-02-13T19:14:59;12.90;37.90
43963;DHT22;29622;45.534;9.242;2023-02-13T19:19:59;12.60;38.20
43963;DHT22;29622;45.534;9.242;2023-02-13T19:25:00;12.30;38.70
43963;DHT22;29622;45.534;9.242;2023-02-13T19:30:01;12.00;39.00
43963;DHT22;29622;45.534;9.242;2023-02-13T19:35:01;11.80;39.20
43963;DHT22;29622;45.534;9.242;2023-02-13T19:40:02;11.60;39.30
43963;DHT22;29622;45.534;9.242;2023-02-13T19:45:04;11.50;39.50
43963;DHT22;29622;45.534;9.242;2023-02-13T19:50:05;11.30;39.80
43963;DHT22;29622;45.534;9.242;2023-02-13T19:55:06;11.20;40.10
43963;DHT22;29622;45.534;9.242;2023-02-13T20:00:07;11.10;40.20
43963;DHT22;29622;45.534;9.242;2023-02-13T20:05:15;11.00;40.90
43963;DHT22;29622;45.534;9.242;2023-02-13T20:10:16;11.10;40.60
43963;DHT22;29622;45.534;9.242;2023-02-13T20:15:16;11.10;40.60
43963;DHT22;29622;45.534;9.242;2023-02-13T20:20:17;11.10;40.80
43963;DHT22;29622;45.534;9.242;2023-02-13T20:25:18;11.10;40.90
43963;DHT22;29622;45.534;9.242;2023-02-13T20:30:19;11.00;41.10
43963;DHT22;29622;45.534;9.242;2023-02-13T20:35:19;10.90;41.20
43963;DHT22;29622;45.534;9.242;2023-02-13T20:40:20;10.80;41.30
43963;DHT22;29622;45.534;9.242;2023-02-13T20:45:20;10.80;41.50
43963;DHT22;29622;45.534;9.242;2023-02-13T20:50:21;10.70;41.70
43963;DHT22;29622;45.534;9.242;2023-02-13T20:55:22;10.60;41.80
43963;DHT22;29622;45.534;9.242;2023-02-13T21:00:23;10.40;42.00
43963;DHT22;29622;45.534;9.242;2023-02-13T21:05:23;10.40;42.30
43963;DHT22;29622;45.534;9.242;2023-02-13T21:10:24;10.40;42.40
43963;DHT22;29622;45.534;9.242;2023-02-13T21:15:27;10.40;42.50
43963;DHT22;29622;45.534;9.242;2023-02-13T21:20:27;10.30;42.60
43963;DHT22;29622;45.534;9.242;2023-02-13T21:25:28;10.20;42.80
43963;DHT22;29622;45.534;9.242;2023-02-13T21:30:29;10.10;43.00
43963;DHT22;29622;45.534;9.242;2023-02-13T21:35:29;10.00;43.10
43963;DHT22;29622;45.534;9.242;2023-02-13T21:40:30;10.00;43.30
43963;DHT22;29622;45.534;9.242;2023-02-13T21:45:31;9.90;43.30
43963;DHT22;29622;45.534;9.242;2023-02-13T21:50:31;9.90;43.50
43963;DHT22;29622;45.534;9.242;2023-02-13T21:55:32;9.80;43.60
43963;DHT22;29622;45.534;9.242;2023-02-13T22:00:33;9.80;43.80
43963;DHT22;29622;45.534;9.242;2023-02-13T22:05:33;9.70;43.80
43963;DHT22;29622;45.534;9.242;2023-02-13T22:10:34;9.80;43.90
43963;DHT22;29622;45.534;9.242;2023-02-13T22:15:35;9.80;43.90
43963;DHT22;29622;45.534;9.242;2023-02-13T22:20:35;9.80;43.90
43963;DHT22;29622;45.534;9.242;2023-02-13T22:25:36;9.90;44.00
43963;DHT22;29622;45.534;9.242;2023-02-13T22:30:37;9.80;44.40
43963;DHT22;29622;45.534;9.242;2023-02-13T22:35:38;9.80;44.10
43963;DHT22;29622;45.534;9.242;2023-02-13T22:40:39;9.80;44.10
43963;DHT22;29622;45.534;9.242;2023-02-13T22:45:39;9.80;44.20
43963;DHT22;29622;45.534;9.242;2023-02-13T22:50:40;9.80;44.30
43963;DHT22;29622;45.534;9.242;2023-02-13T22:55:41;9.80;44.30
43963;DHT22;29622;45.534;9.242;2023-02-13T23:00:41;9.70;44.40
43963;DHT22;29622;45.534;9.242;2023-02-13T23:05:42;9.70;44.40
43963;DHT22;29622;45.534;9.242;2023-02-13T23:10:43;9.60;44.50
43963;DHT22;29622;45.534;9.242;2023-02-13T23:16:11;9.60;44.70
43963;DHT22;29622;45.534;9.242;2023-02-13T23:21:12;9.60;44.70
43963;DHT22;29622;45.534;9.242;2023-02-13T23:26:12;9.50;44.70
43963;DHT22;29622;45.534;9.242;2023-02-13T23:31:13;9.50;44.80
43963;DHT22;29622;45.534;9.242;2023-02-13T23:36:13;9.40;44.90
43963;DHT22;29622;45.534;9.242;2023-02-13T23:41:14;9.40;44.90
43963;DHT22;29622;45.534;9.242;2023-02-13T23:46:15;9.30;44.90
43963;DHT22;29622;45.534;9.242;2023-02-13T23:51:15;9.30;45.00
43963;DHT22;29622;45.534;9.242;2023-02-13T23:56:17;9.20;45.10
